My Meet Scores
Samella Shive, Gym Kinetics Gymnastics - MyMeetScores.com
Top100 | Top Teams | Upcoming Meets | Completed Meets | Latest | Add Scores | Help| Support | Bookmark and Share

Samella Shive, Gym Kinetics Gymnastics
Personal Bests
LevelVault BarsBeamFloorAA
49.7009.375 9.4509.60037.475
58.9008.925 8.7759.30035.900
69.4509.000 9.4509.30036.950
89.2759.550 9.5009.07537.025
99.4259.500 9.2509.20036.900
109.1009.125 9.2509.30036.025
Meet Scores
Date Meet Team Session Level Division Vault Bars Beam Floor AA
2020-01-17 2020 Bravo Classic Gym Kinetics Gymnastics 8A 10 Jr 8.850 6 9.100 2 7.175 7 9.125 3 34.250 4
2020-01-10 Leenda's Island Adventure Gym Kinetics Gymnastics PG4 10 15 Year Ol 9.100 1T 9.125 2 9.250 3 8.550 4T 36.025 2
2019-12-20 Aspire Classic - 2019 Gym Kinetics Gymnastics 6B 10 Younger 9.025 11 8.100 14 8.350 13T 9.300 8 34.775 13
2019-12-07 Home for the Holidays 2019 Gym Kinetics Gymnastics 3 10 All 9.025 2T 9.000 1T 7.575 5 9.000 2 34.600 2
2019-04-11 Region 5 9/10 Championships Gym Kinetics Gymnastics 11 9 Sr 1 9.075 16T 9.350 6 8.725 20 9.075 19T 36.225 13
2019-03-15 Illinois State Championship Level 6,9,10 Gym Kinetics Gymnastics 7 9 Jr D 9.425 6T 9.500 3T 8.775 10 9.200 16T 36.900 5
2019-03-01 NGCD Academy's 2019 Flip'r Invitational Gym Kinetics Gymnastics 7 9 Sr 9.275 4T 9.075 3 9.125 3 8.900 8 36.375 2
2019-02-23 Kinetic Classic 2019 Gym Kinetics Gymnastics 1 9 Younger 9.200 3 9.475 1 9.050 3T 8.975 6 36.700 1
2019-02-08 Midwest Twisters Harley Meet Womens Gym Kinetics Gymnastics O07 9 14 yrs. 8.850 4 9.225 3 8.550 10 8.100 11T 34.725 5T
2019-01-18 2019 Bravo Classic Gym Kinetics Gymnastics 6A 9 Jr 0.000 11T 9.100 3 8.900 4 0.000 12T 18.000 11
2019-01-11 St Jude Benefit Meet Gym Kinetics Gymnastics 3C 9 Jr B 0.000 11T 7.950 10 8.650 3 0.000 12T 16.600 12
2018-04-12 2018 Region 5 Levels 9/10 Championships Gym Kinetics Gymnastics 08 9 Jr 5 9.025 15 9.250 7 8.950 14 9.200 19 36.425 9
2018-03-16 2018 Illinois Level 6, 9, 10 State Championships Gym Kinetics Gymnastics 04 9 Ch C 9.125 10T 9.400 4T 8.550 8T 9.075 11T 36.150 7
2018-02-23 Kinetic Classic Gym Kinetics Gymnastics 3 9 Younger 9.000 31T 9.400 4 8.450 34 8.600 29T 35.450 25
2018-02-09 Arizona Sunrays Classic Rock Invitational Gym Kinetics Gymnastics W08 9 JrB 9.300 1 9.275 2 8.075 7 9.175 7 35.825 4
2018-02-03 Midwest Games Gym Kinetics Gymnastics 1 9 All 9.000 4 8.925 2 8.650 8T 9.100 3 35.675 1
2018-01-19 2018 Bravo Classic Gym Kinetics Gymnastics 6A 9 Jr 9.125 5T 9.225 1 8.900 1T 8.250 10 35.500 1
2017-12-15 2017 Aspire Classic Gym Kinetics Gymnastics 5B 9 Younger 0.000 14T 8.900 5T 0.000 14T 0.000 14T 8.900 14
2017-03-16 2017 Illinois Level 8, 9 & 10 State Meet Gym Kinetics Gymnastics All 8 Jr D 9.275 3T 9.175 9 9.500 3 9.075 17 37.025 4
2017-02-24 Kinetic Classic Gym Kinetics Gymnastics 2 8 All Ages 9.250 8T 9.275 12T 9.350 6* 8.925 42 36.800 11T
2017-02-24 Kinetic Classic Gym Kinetics Gymnastics 3 9 All Ages 8.650 31 0.000 36T 9.250 7T 0.000 35T 17.900 35
2017-02-09 Hal's Harley-Davidson Invite Gym Kinetics Gymnastics O05 8 12 yrs. 8.675 4 9.550 1 8.875 6 9.050 5 36.150 5
2017-01-13 St Jude Benefit Meet Gym Kinetics Gymnastics 8B 8 Jr B 8.850 2 8.000 9 9.100 4 9.075 9 35.025 6
2016-12-16 2016 Aspire Classic Gym Kinetics Gymnastics 8 8 All 9.150 4 9.325 2 9.200 6 8.925 9 36.600 2
2015-05-02 2015 Illinois Level 6, 7 State Championships Gym Kinetics Gymnastics 6 Youth-D 9.250 2 8.900 15 9.350 3 9.300 9 36.800 5
2015-01-23 King Arthur Invitational Gym Kinetics Gymnastics 1 6 JrA 9.350 1 9.000 6 9.300 5 9.300 3 36.950 1
2015-01-09 Legacy Elite Winter Classic 2015 Flipstar Gymnastics Academy 6A 6 Ch A 9.450 2 8.725 5 9.450 4 9.250 5 36.875 2
2014-11-07 Illinois Judges Cup 2014 Gym Kinetics Gymnastics B5 5 10 Year Ol 8.900 4T 8.925 7 8.775 7T 9.300 5 35.900 6
2014-03-13 2014 Illinois Level 4 State Meet Gym Kinetics Gymnastics 4 Child.G 9.375 3 9.375 5 9.125 11 9.600 2 37.475 3
2014-02-15 BIG Dream Classic 2014 Gym Kinetics Gymnastics 2A 4 Child B 9.400 2T 8.900 5 8.600 19 9.350 2 36.250 4
2014-01-17 2014 Bravo Classic Gym Kinetics Gymnastics 9B 4 9-10yrs 9.500 1 8.875 13 9.400 4 9.350 2 37.125 2
2013-12-19 2013 Hawaiian Pineapple Classic Gym Kinetics Gymnastics A6 4 9 9.475 2 8.950 3 9.450 4 9.325 2T 37.200 2
2013-12-06 Ultimate Wish Classic Gym Kinetics Gymnastics A 4 Youth9 9.275 1 8.850 7 9.175 6 9.525 1 36.825 2
2013-04-04 2013 Illinois Level 3, 4 State Meet Gym Kinetics Gymnastics 4 Youth.D 9.700 2 9.300 3 9.100 12 9.375 6 37.475 6
2013-02-22 Midwest Open 2013 Gym Kinetics Gymnastics 6A 4 8 9.600 3 8.775 19 9.200 7 9.050 7 36.625 7
2013-02-16 BIG Dream Classic 2013 Gym Kinetics Gymnastics 2A 4 Junior A 9.425 9 9.025 12 9.275 6T 8.850 11 36.575 10
2012-12-13 2012 Hawaiin Pineapple Classic Gym Kinetics Gymnastics 6 4 age 8 9.225 4 8.000 9 8.400 6 8.950 6 34.575 5
2012-11-30 Ultimate Wish Classic 2012 Gym Kinetics Gymnastics 4 L4 Jr A S9 8.800 4 9.000 3 8.750 4 9.275 2 35.825 2
2012-11-09 2012 Illinois Judges Cup Gym Kinetics Gymnastics 5B 4 6-8 8.800 6 8.500 18 7.850 28 8.800 11 33.950 17
Get your scores on
a t-shirt, pin, or hoodie

www.lazysuits.com